createdAt,value
2023-02-19T00:01:46.854Z,101572.56
2023-02-19T00:04:16.682Z,101576.13
2023-02-19T00:06:45.091Z,101577.13
2023-02-19T00:09:13.908Z,101575.47
2023-02-19T00:11:41.789Z,101572.91
2023-02-19T00:14:09.677Z,101577.44
2023-02-19T00:16:39.037Z,101578.44
2023-02-19T00:19:08.663Z,101580.25
2023-02-19T00:21:35.601Z,101582.09
2023-02-19T00:24:05.569Z,101581.25
2023-02-19T00:26:33.630Z,101574.25
2023-02-19T00:29:01.752Z,101576.16
2023-02-19T00:31:34.018Z,101587.09
2023-02-19T00:34:04.356Z,101584.94
2023-02-19T00:36:32.686Z,101583.41
2023-02-19T00:38:59.611Z,101590.56
2023-02-19T00:41:26.523Z,101595.22
2023-02-19T00:44:07.756Z,101596.19
2023-02-19T00:46:36.251Z,101597.03
2023-02-19T00:49:03.866Z,101604.28
2023-02-19T00:51:33.298Z,101601.75
2023-02-19T00:54:00.586Z,101597.50
2023-02-19T00:56:28.425Z,101599.31
2023-02-19T00:58:55.360Z,101609.91
2023-02-19T01:01:22.764Z,101612.47
2023-02-19T01:03:49.943Z,101603.75
2023-02-19T01:06:18.889Z,101611.03
2023-02-19T01:08:46.296Z,101610.19
2023-02-19T01:11:14.336Z,101613.78
2023-02-19T01:13:41.465Z,101615.56
2023-02-19T01:16:15.767Z,101615.66
2023-02-19T01:18:43.941Z,101616.56
2023-02-19T01:21:30.303Z,101621.00
2023-02-19T01:23:58.874Z,101622.84
2023-02-19T01:26:30.310Z,101636.13
2023-02-19T01:28:57.747Z,101636.28
2023-02-19T01:31:25.524Z,101642.41
2023-02-19T01:34:03.534Z,101642.41
2023-02-19T01:36:34.434Z,101636.41
2023-02-19T01:39:05.350Z,101626.66
2023-02-19T01:41:34.739Z,101631.91
2023-02-19T01:44:11.619Z,101625.81
2023-02-19T01:46:43.426Z,101638.09
2023-02-19T01:49:19.418Z,101645.25
2023-02-19T01:51:54.603Z,101653.09
2023-02-19T01:54:25.244Z,101650.53
2023-02-19T01:56:52.797Z,101659.38
2023-02-19T01:59:20.082Z,101664.63
2023-02-19T02:01:47.069Z,101655.91
2023-02-19T02:04:15.928Z,101655.84
2023-02-19T02:06:52.402Z,101653.97
2023-02-19T02:09:39.876Z,101660.22
2023-02-19T02:12:07.246Z,101657.56
2023-02-19T02:14:37.979Z,101654.09
2023-02-19T02:17:07.651Z,101669.06
2023-02-19T02:19:52.959Z,101680.50
2023-02-19T02:22:24.697Z,101674.44
2023-02-19T02:25:13.438Z,101687.69
2023-02-19T02:28:14.443Z,101684.03
2023-02-19T02:30:49.113Z,101684.06
2023-02-19T02:33:42.450Z,101675.25
2023-02-19T02:36:17.353Z,101675.25
2023-02-19T02:38:47.242Z,101686.72
2023-02-19T02:41:15.859Z,101685.91
2023-02-19T02:43:43.002Z,101692.88
2023-02-19T02:46:12.716Z,101689.47
2023-02-19T02:48:47.541Z,101695.59
2023-02-19T02:51:24.394Z,101693.00
2023-02-19T02:54:12.802Z,101701.72
2023-02-19T02:56:41.961Z,101701.72
2023-02-19T02:59:11.393Z,101700.94
2023-02-19T03:02:02.669Z,101701.72
2023-02-19T03:04:35.341Z,101704.91
2023-02-19T03:07:08.154Z,101708.63
2023-02-19T03:09:43.442Z,101703.38
2023-02-19T03:12:34.569Z,101704.25
2023-02-19T03:15:26.842Z,101703.47
2023-02-19T03:18:16.735Z,101707.84
2023-02-19T03:20:48.804Z,101711.41
2023-02-19T03:23:18.530Z,101712.19
2023-02-19T03:26:04.392Z,101706.09
2023-02-19T03:28:55.433Z,101698.25
2023-02-19T03:31:25.366Z,101696.44
2023-02-19T03:33:57.690Z,101700.72
2023-02-19T03:36:30.524Z,101700.69
2023-02-19T03:39:06.760Z,101693.75
2023-02-19T03:41:51.808Z,101702.47
2023-02-19T03:44:27.721Z,101708.63
2023-02-19T03:47:03.780Z,101713.91
2023-02-19T03:49:43.536Z,101710.38
2023-02-19T03:52:16.818Z,101703.38
2023-02-19T03:54:46.646Z,101710.50
2023-02-19T03:57:46.400Z,101722.78
2023-02-19T04:00:27.551Z,101725.38
2023-02-19T04:02:58.737Z,101729.69
2023-02-19T04:05:31.662Z,101728.75
2023-02-19T04:08:04.364Z,101733.25
2023-02-19T04:10:32.588Z,101734.97
2023-02-19T04:13:10.756Z,101738.41
2023-02-19T04:15:43.193Z,101726.09
2023-02-19T04:18:17.223Z,101733.13
2023-02-19T04:20:45.672Z,101729.56
2023-02-19T04:23:14.926Z,101719.03
2023-02-19T04:25:45.592Z,101715.47
2023-02-19T04:28:14.791Z,101716.34
2023-02-19T04:30:41.769Z,101720.69
2023-02-19T04:33:08.756Z,101707.44
2023-02-19T04:35:35.602Z,101683.63
2023-02-19T04:38:02.541Z,101664.19
2023-02-19T04:40:29.488Z,101663.28
2023-02-19T04:42:56.356Z,101661.53
2023-02-19T04:45:23.176Z,101673.00
2023-02-19T04:47:50.155Z,101676.50
2023-02-19T04:50:17.161Z,101677.34
2023-02-19T04:52:44.041Z,101694.09
2023-02-19T04:55:11.084Z,101683.50
2023-02-19T04:57:37.901Z,101686.94
2023-02-19T05:00:05.250Z,101701.13
2023-02-19T05:02:32.261Z,101706.41
2023-02-19T05:04:59.095Z,101690.66
2023-02-19T05:07:25.929Z,101685.25
2023-02-19T05:09:52.830Z,101676.50
2023-02-19T05:12:19.662Z,101671.22
2023-02-19T05:14:46.590Z,101671.16
2023-02-19T05:17:13.441Z,101658.91
2023-02-19T05:19:40.303Z,101663.13
2023-02-19T05:22:07.130Z,101654.34
2023-02-19T05:24:34.071Z,101647.41
2023-02-19T05:27:00.874Z,101639.31
2023-02-19T05:29:27.708Z,101642.91
2023-02-19T05:31:54.590Z,101650.75
2023-02-19T05:34:21.480Z,101655.19
2023-02-19T05:36:48.283Z,101655.19
2023-02-19T05:39:15.283Z,101653.47
2023-02-19T05:41:42.193Z,101669.25
2023-02-19T05:44:11.292Z,101663.94
2023-02-19T05:46:38.333Z,101662.22
2023-02-19T05:49:05.285Z,101663.22
2023-02-19T05:51:32.180Z,101661.34
2023-02-19T05:53:59.298Z,101657.78
2023-02-19T05:56:38.191Z,101663.94
2023-02-19T05:59:08.788Z,101657.72
2023-02-19T06:01:35.918Z,101660.34
2023-02-19T06:04:03.030Z,101668.28
2023-02-19T06:06:29.965Z,101668.28
2023-02-19T06:08:56.742Z,101664.78
2023-02-19T06:11:24.425Z,101666.53
2023-02-19T06:13:51.523Z,101664.66
2023-02-19T06:16:19.632Z,101644.47
2023-02-19T06:18:46.559Z,101657.47
2023-02-19T06:21:14.466Z,101643.38
2023-02-19T06:23:41.788Z,101637.19
2023-02-19T06:26:16.259Z,101632.84
2023-02-19T06:28:43.502Z,101625.81
2023-02-19T06:31:11.789Z,101613.66
2023-02-19T06:33:40.900Z,101615.31
2023-02-19T06:36:12.633Z,101615.50
2023-02-19T06:38:39.541Z,101630.34
2023-02-19T06:41:07.743Z,101620.75
2023-02-19T06:43:35.465Z,101604.91
2023-02-19T06:46:04.164Z,101614.56
2023-02-19T06:48:32.592Z,101595.19
2023-02-19T06:50:59.721Z,101591.63
2023-02-19T06:53:26.856Z,101595.25
2023-02-19T06:56:02.714Z,101604.00
2023-02-19T06:58:30.095Z,101609.16
2023-02-19T07:00:57.261Z,101620.19
2023-02-19T07:03:24.488Z,101629.53
2023-02-19T07:05:51.345Z,101623.00
2023-02-19T07:08:18.276Z,101634.16
2023-02-19T07:10:45.950Z,101638.22
2023-02-19T07:13:12.799Z,101622.97
2023-02-19T07:15:39.637Z,101622.72
2023-02-19T07:18:10.586Z,101622.56
2023-02-19T07:20:38.029Z,101636.63
2023-02-19T07:23:05.193Z,101650.75
2023-02-19T07:25:32.229Z,101636.41
2023-02-19T07:27:59.047Z,101627.56
2023-02-19T07:30:26.246Z,101630.13
2023-02-19T07:32:53.114Z,101637.06
2023-02-19T07:35:19.930Z,101641.44
2023-02-19T07:37:46.854Z,101641.41
2023-02-19T07:40:13.707Z,101645.84
2023-02-19T07:42:40.592Z,101633.44
2023-02-19T07:45:07.742Z,101633.22
2023-02-19T07:47:34.583Z,101633.16
2023-02-19T07:50:01.536Z,101646.75
2023-02-19T07:52:28.641Z,101636.56
2023-02-19T07:55:49.685Z,101623.91
2023-02-19T07:58:17.277Z,101628.59
2023-02-19T08:00:44.454Z,101598.28
2023-02-19T08:03:12.316Z,101612.22
2023-02-19T08:05:41.201Z,101607.16
2023-02-19T08:08:15.197Z,101598.94
2023-02-19T08:11:01.284Z,101595.09
2023-02-19T08:13:31.029Z,101584.31
2023-02-19T08:16:20.026Z,101570.84
2023-02-19T08:18:49.496Z,101565.13
2023-02-19T08:21:18.519Z,101567.84
2023-02-19T08:23:46.530Z,101567.97
2023-02-19T08:26:13.747Z,101570.72
2023-02-19T08:28:40.969Z,101573.94
2023-02-19T08:31:10.285Z,101565.22
2023-02-19T08:33:38.338Z,101559.41
2023-02-19T08:36:08.243Z,101548.56
2023-02-19T08:38:36.712Z,101548.25
2023-02-19T08:41:09.580Z,101543.59
2023-02-19T08:43:37.192Z,101543.47
2023-02-19T08:46:05.172Z,101552.22
2023-02-19T08:48:32.098Z,101545.13
2023-02-19T08:51:04.177Z,101552.81
2023-02-19T08:53:32.898Z,101540.44
2023-02-19T08:56:04.387Z,101534.00
2023-02-19T08:58:33.057Z,101539.16
2023-02-19T09:00:59.998Z,101536.44
2023-02-19T09:03:30.052Z,101539.59
2023-02-19T09:05:57.006Z,101525.38
2023-02-19T09:08:23.938Z,101542.00
2023-02-19T09:11:04.885Z,101545.69
2023-02-19T09:13:32.023Z,101548.34
2023-02-19T09:15:58.979Z,101555.25
2023-02-19T09:18:26.505Z,101554.38
2023-02-19T09:20:53.470Z,101556.81
2023-02-19T09:23:20.464Z,101563.69
2023-02-19T09:25:47.527Z,101557.31
2023-02-19T09:28:14.521Z,101561.59
2023-02-19T09:30:41.499Z,101564.06
2023-02-19T09:33:08.475Z,101566.53
2023-02-19T09:35:39.800Z,101562.84
2023-02-19T09:38:07.817Z,101563.47
2023-02-19T09:40:37.212Z,101559.81
2023-02-19T09:43:13.530Z,101558.66
2023-02-19T09:45:40.843Z,101556.78
2023-02-19T09:48:10.564Z,101549.63
2023-02-19T09:50:41.598Z,101538.88
2023-02-19T09:53:41.066Z,101530.78
2023-02-19T09:56:08.865Z,101529.84
2023-02-19T09:58:44.095Z,101536.09
2023-02-19T10:01:12.871Z,101538.72
2023-02-19T10:03:44.325Z,101542.16
2023-02-19T10:06:32.934Z,101540.47
2023-02-19T10:09:20.532Z,101558.06
2023-02-19T10:11:49.609Z,101534.22
2023-02-19T10:14:23.326Z,101554.34
2023-02-19T10:16:50.622Z,101553.25
2023-02-19T10:19:18.177Z,101546.88
2023-02-19T10:21:45.901Z,101541.44
2023-02-19T10:24:27.416Z,101535.13
2023-02-19T10:26:55.099Z,101527.06
2023-02-19T10:29:22.610Z,101526.16
2023-02-19T10:31:49.911Z,101519.97
2023-02-19T10:34:23.702Z,101503.19
2023-02-19T10:36:52.722Z,101492.38
2023-02-19T10:39:22.406Z,101479.75
2023-02-19T10:41:51.543Z,101466.41
2023-02-19T10:44:28.380Z,101454.72
2023-02-19T10:46:59.367Z,101455.53
2023-02-19T10:49:33.080Z,101460.78
2023-02-19T10:52:20.596Z,101459.78
2023-02-19T10:54:55.815Z,101459.78
2023-02-19T10:57:32.918Z,101454.53
2023-02-19T11:00:24.532Z,101456.16
2023-02-19T11:03:22.100Z,101444.88
2023-02-19T11:06:02.655Z,101445.72
2023-02-19T11:08:30.891Z,101433.41
2023-02-19T11:10:57.836Z,101431.59
2023-02-19T11:13:32.648Z,101421.06
2023-02-19T11:16:00.687Z,101413.09
2023-02-19T11:18:31.322Z,101409.41
2023-02-19T11:21:01.843Z,101411.16
2023-02-19T11:23:37.855Z,101408.66
2023-02-19T11:26:15.928Z,101412.06
2023-02-19T11:28:43.665Z,101393.50
2023-02-19T11:31:16.495Z,101401.56
2023-02-19T11:33:48.805Z,101410.22
2023-02-19T11:36:15.748Z,101403.97
2023-02-19T11:38:43.337Z,101406.00
2023-02-19T11:41:36.560Z,101400.44
2023-02-19T11:44:32.407Z,101399.06
2023-02-19T11:47:30.091Z,101388.66
2023-02-19T11:50:26.001Z,101368.97
2023-02-19T11:53:05.168Z,101358.56
2023-02-19T11:55:48.837Z,101349.78
2023-02-19T11:58:47.700Z,101353.25
2023-02-19T12:01:20.251Z,101360.09
2023-02-19T12:04:02.547Z,101351.78
2023-02-19T12:06:53.955Z,101347.94
2023-02-19T12:09:45.093Z,101336.31
2023-02-19T12:12:21.966Z,101331.50
2023-02-19T12:14:58.193Z,101325.41
2023-02-19T12:17:37.345Z,101291.50
2023-02-19T12:20:14.446Z,101307.00
2023-02-19T12:22:48.683Z,101304.09
2023-02-19T12:25:42.733Z,101294.91
2023-02-19T12:28:26.924Z,101298.94
2023-02-19T12:30:56.448Z,101290.72
2023-02-19T12:33:26.388Z,101282.47
2023-02-19T12:36:30.526Z,101267.91
2023-02-19T12:39:23.100Z,101283.50
2023-02-19T12:42:03.631Z,101277.97
2023-02-19T12:44:42.743Z,101265.66
2023-02-19T12:47:21.534Z,101271.38
2023-02-19T12:49:59.911Z,101239.47
2023-02-19T12:52:33.637Z,101222.75
2023-02-19T12:55:21.666Z,101218.22
2023-02-19T12:57:51.802Z,101192.00
2023-02-19T13:00:37.780Z,101194.50
2023-02-19T13:03:09.379Z,101209.53
2023-02-19T13:05:44.904Z,101224.94
2023-02-19T13:09:03.506Z,101205.09
2023-02-19T13:11:38.294Z,101192.94
2023-02-19T13:14:15.709Z,101209.38
2023-02-19T13:16:50.749Z,101212.63
2023-02-19T13:19:17.765Z,101197.50
2023-02-19T13:22:08.316Z,101196.25
2023-02-19T13:24:40.127Z,101173.13
2023-02-19T13:27:22.225Z,101190.69
2023-02-19T13:30:16.470Z,101186.00
2023-02-19T13:32:52.957Z,101165.47
2023-02-19T13:35:33.727Z,101174.03
2023-02-19T13:38:03.570Z,101168.63
2023-02-19T13:40:35.295Z,101161.88
2023-02-19T13:43:28.703Z,101144.19
2023-02-19T13:45:59.665Z,101133.56
2023-02-19T13:48:38.666Z,101131.47
2023-02-19T13:51:26.540Z,101109.16
2023-02-19T13:53:56.306Z,101084.34
2023-02-19T13:56:35.538Z,101080.50
2023-02-19T13:59:11.764Z,101077.28
2023-02-19T14:01:53.776Z,101062.94
2023-02-19T14:04:22.833Z,101066.84
2023-02-19T14:07:04.942Z,101078.66
2023-02-19T14:09:35.832Z,101062.69
2023-02-19T14:12:09.969Z,101067.81
2023-02-19T14:14:39.910Z,101053.97
2023-02-19T14:17:09.689Z,101050.94
2023-02-19T14:19:42.906Z,101065.06
2023-02-19T14:22:53.176Z,101064.63
2023-02-19T14:25:35.296Z,101059.19
2023-02-19T14:28:17.398Z,101051.34
2023-02-19T14:30:55.374Z,101016.84
2023-02-19T14:33:33.201Z,100992.72
2023-02-19T14:36:06.852Z,100998.34
2023-02-19T14:38:39.574Z,100981.25
2023-02-19T14:41:07.974Z,100992.44
2023-02-19T14:43:36.837Z,100962.00
2023-02-19T14:46:13.904Z,100947.03
2023-02-19T14:48:46.102Z,100965.41
2023-02-19T14:51:22.679Z,100949.81
2023-02-19T14:53:50.011Z,100919.53
2023-02-19T14:56:22.531Z,100955.28
2023-02-19T14:59:06.537Z,100959.38
2023-02-19T15:01:33.734Z,100965.16
2023-02-19T15:04:01.639Z,100933.94
2023-02-19T15:06:29.745Z,100932.88
2023-02-19T15:09:00.176Z,100920.56
2023-02-19T15:11:32.445Z,100904.47
2023-02-19T15:14:06.473Z,100892.88
2023-02-19T15:16:36.208Z,100892.75
2023-02-19T15:19:08.225Z,100898.81
2023-02-19T15:21:40.381Z,100898.72
2023-02-19T15:24:07.839Z,100897.75
2023-02-19T15:26:43.446Z,100910.84
2023-02-19T15:29:13.452Z,100899.34
2023-02-19T15:31:49.817Z,100894.00
2023-02-19T15:34:19.683Z,100911.06
2023-02-19T15:36:48.876Z,100910.00
2023-02-19T15:39:25.954Z,100916.16
2023-02-19T15:42:00.197Z,100900.31
2023-02-19T15:44:52.228Z,100894.88
2023-02-19T15:47:25.044Z,100898.34
2023-02-19T15:50:04.611Z,100891.97
2023-02-19T15:52:34.090Z,100883.91
2023-02-19T15:55:16.238Z,100892.41
2023-02-19T15:57:55.241Z,100880.91
2023-02-19T16:00:33.181Z,100865.94
2023-02-19T16:03:00.423Z,100867.53
2023-02-19T16:05:29.803Z,100844.50
2023-02-19T16:08:12.495Z,100854.41
2023-02-19T16:10:40.014Z,100866.75
2023-02-19T16:13:09.699Z,100854.50
2023-02-19T16:15:38.889Z,100853.09
2023-02-19T16:18:06.046Z,100851.72
2023-02-19T16:20:35.845Z,100853.53
2023-02-19T16:23:15.780Z,100862.66
2023-02-19T16:25:46.156Z,100855.66
2023-02-19T16:28:23.701Z,100865.53
2023-02-19T16:31:00.136Z,100868.53
2023-02-19T16:33:43.436Z,100881.75
2023-02-19T16:36:34.902Z,100913.88
2023-02-19T16:39:07.904Z,100907.03
2023-02-19T16:41:34.825Z,100933.63
2023-02-19T16:44:06.854Z,100905.63
2023-02-19T16:46:34.259Z,100896.06
2023-02-19T16:49:01.202Z,100876.50
2023-02-19T16:51:28.513Z,100867.25
2023-02-19T16:53:55.428Z,100870.84
2023-02-19T16:56:23.602Z,100880.09
2023-02-19T16:58:51.070Z,100879.13
2023-02-19T17:01:18.784Z,100878.28
2023-02-19T17:03:47.635Z,100875.81
2023-02-19T17:06:15.966Z,100882.00
2023-02-19T17:08:44.892Z,100904.13
2023-02-19T17:11:14.948Z,100883.69
2023-02-19T17:13:44.268Z,100886.16
2023-02-19T17:16:22.394Z,100884.94
2023-02-19T17:18:50.244Z,100890.38
2023-02-19T17:21:26.934Z,100894.22
2023-02-19T17:23:54.693Z,100927.06
2023-02-19T17:26:30.280Z,100937.88
2023-02-19T17:29:02.235Z,100930.78
2023-02-19T17:31:29.585Z,100926.94
2023-02-19T17:33:57.182Z,100915.88
2023-02-19T17:36:32.574Z,100908.66
2023-02-19T17:39:00.913Z,100907.97
2023-02-19T17:41:29.010Z,100891.81
2023-02-19T17:43:56.225Z,100881.69
2023-02-19T17:46:26.312Z,100847.31
2023-02-19T17:48:54.692Z,100841.47
2023-02-19T17:51:22.141Z,100857.22
2023-02-19T17:53:49.473Z,100875.03
2023-02-19T17:56:19.477Z,100870.56
2023-02-19T17:58:46.812Z,100847.53
2023-02-19T18:01:15.230Z,100842.09
2023-02-19T18:03:43.599Z,100836.16
2023-02-19T18:06:10.884Z,100850.50
2023-02-19T18:08:38.252Z,100834.44
2023-02-19T18:11:07.959Z,100799.81
2023-02-19T18:13:34.994Z,100810.31
2023-02-19T18:16:01.998Z,100815.50
2023-02-19T18:18:30.497Z,100800.63
2023-02-19T18:20:57.631Z,100807.00
2023-02-19T18:23:24.611Z,100830.09
2023-02-19T18:25:51.722Z,100831.00
2023-02-19T18:28:18.801Z,100823.91
2023-02-19T18:30:45.849Z,100808.13
2023-02-19T18:33:13.810Z,100788.78
2023-02-19T18:35:41.325Z,100789.41
2023-02-19T18:38:08.676Z,100771.78
2023-02-19T18:40:35.837Z,100767.63
2023-02-19T18:43:02.983Z,100758.91
2023-02-19T18:45:34.288Z,100757.44
2023-02-19T18:48:02.230Z,100751.25
2023-02-19T18:50:29.695Z,100725.53
2023-02-19T18:52:56.847Z,100774.09
2023-02-19T18:55:23.987Z,100761.69
2023-02-19T18:57:50.979Z,100744.88
2023-02-19T19:00:21.272Z,100735.94
2023-02-19T19:02:51.249Z,100731.47
2023-02-19T19:05:23.255Z,100763.16
2023-02-19T19:07:52.344Z,100759.84
2023-02-19T19:10:20.214Z,100753.78
2023-02-19T19:12:47.446Z,100775.72
2023-02-19T19:15:18.043Z,100751.88
2023-02-19T19:17:45.761Z,100690.69
2023-02-19T19:20:15.226Z,100723.44
2023-02-19T19:22:43.217Z,100771.69
2023-02-19T19:25:11.092Z,100774.06
2023-02-19T19:27:38.418Z,100744.63
2023-02-19T19:30:08.026Z,100756.22
2023-02-19T19:32:35.465Z,100746.53
2023-02-19T19:35:03.247Z,100744.31
2023-02-19T19:37:30.944Z,100722.84
2023-02-19T19:39:58.640Z,100704.56
2023-02-19T19:42:25.935Z,100706.91
2023-02-19T19:44:53.142Z,100717.09
2023-02-19T19:47:20.528Z,100717.09
2023-02-19T19:49:47.982Z,100707.25
2023-02-19T19:52:15.792Z,100719.34
2023-02-19T19:54:44.022Z,100723.50
2023-02-19T19:57:13.115Z,100712.03
2023-02-19T19:59:40.457Z,100705.44
2023-02-19T20:02:08.329Z,100691.41
2023-02-19T20:04:36.949Z,100701.06
2023-02-19T20:07:04.506Z,100720.53
2023-02-19T20:09:32.604Z,100697.44
2023-02-19T20:12:00.336Z,100680.50
2023-02-19T20:14:28.705Z,100684.75
2023-02-19T20:16:56.862Z,100649.25
2023-02-19T20:19:24.994Z,100672.09
2023-02-19T20:21:57.906Z,100684.34
2023-02-19T20:24:30.890Z,100663.19
2023-02-19T20:27:00.933Z,100665.84
2023-02-19T20:29:33.594Z,100663.91
2023-02-19T20:32:02.848Z,100662.00
2023-02-19T20:34:30.929Z,100681.59
2023-02-19T20:37:03.217Z,100652.53
2023-02-19T20:39:32.183Z,100657.00
2023-02-19T20:42:04.156Z,100667.53
2023-02-19T20:44:32.291Z,100660.53
2023-02-19T20:47:00.404Z,100663.06
2023-02-19T20:49:31.102Z,100661.25
2023-02-19T20:52:06.156Z,100666.56
2023-02-19T20:54:44.620Z,100658.81
2023-02-19T20:57:14.237Z,100669.13
2023-02-19T20:59:47.450Z,100665.72
2023-02-19T21:02:24.873Z,100656.50
2023-02-19T21:04:53.104Z,100616.06
2023-02-19T21:07:20.770Z,100610.13
2023-02-19T21:09:48.107Z,100589.91
2023-02-19T21:12:15.810Z,100588.22
2023-02-19T21:14:43.450Z,100579.84
2023-02-19T21:17:11.292Z,100567.41
2023-02-19T21:19:39.034Z,100553.47
2023-02-19T21:22:09.121Z,100561.66
2023-02-19T21:24:37.170Z,100554.88
2023-02-19T21:27:04.800Z,100538.41
2023-02-19T21:29:32.242Z,100543.72
2023-02-19T21:31:59.828Z,100530.72
2023-02-19T21:34:29.836Z,100552.13
2023-02-19T21:36:58.930Z,100561.47
2023-02-19T21:39:29.523Z,100550.41
2023-02-19T21:42:00.990Z,100527.69
2023-02-19T21:44:31.418Z,100527.91
2023-02-19T21:46:59.513Z,100531.50
2023-02-19T21:49:27.656Z,100544.97
2023-02-19T21:51:55.543Z,100530.22
2023-02-19T21:54:25.809Z,100546.34
2023-02-19T21:56:54.088Z,100532.94
2023-02-19T21:59:23.235Z,100539.34
2023-02-19T22:01:51.906Z,100544.97
2023-02-19T22:04:22.099Z,100540.59
2023-02-19T22:06:50.223Z,100541.66
2023-02-19T22:09:20.053Z,100543.81
2023-02-19T22:11:47.365Z,100536.03
2023-02-19T22:14:14.566Z,100519.16
2023-02-19T22:16:41.805Z,100526.06
2023-02-19T22:19:09.894Z,100530.41
2023-02-19T22:21:36.933Z,100516.28
2023-02-19T22:24:04.736Z,100510.03
2023-02-19T22:26:34.280Z,100495.56
2023-02-19T22:29:06.334Z,100503.88
2023-02-19T22:31:33.745Z,100485.81
2023-02-19T22:34:00.642Z,100479.94
2023-02-19T22:36:31.240Z,100491.72
2023-02-19T22:38:58.448Z,100491.06
2023-02-19T22:41:25.570Z,100473.75
2023-02-19T22:43:55.919Z,100468.00
2023-02-19T22:46:30.846Z,100447.94
2023-02-19T22:48:59.098Z,100443.69
2023-02-19T22:51:27.172Z,100448.44
2023-02-19T22:53:56.639Z,100459.25
2023-02-19T22:56:26.254Z,100455.13
2023-02-19T22:58:54.386Z,100465.94
2023-02-19T23:01:21.950Z,100474.00
2023-02-19T23:03:51.377Z,100458.19
2023-02-19T23:06:25.768Z,100469.09
2023-02-19T23:08:53.895Z,100468.44
2023-02-19T23:11:30.968Z,100463.13
2023-02-19T23:13:58.620Z,100457.09
2023-02-19T23:16:26.214Z,100458.22
2023-02-19T23:18:53.209Z,100454.09
2023-02-19T23:21:21.342Z,100440.84
2023-02-19T23:23:48.666Z,100434.13
2023-02-19T23:26:16.982Z,100432.34
2023-02-19T23:28:44.576Z,100416.63
2023-02-19T23:31:12.774Z,100418.56
2023-02-19T23:33:40.155Z,100430.94
2023-02-19T23:36:07.807Z,100424.13
2023-02-19T23:38:34.849Z,100428.69
2023-02-19T23:41:02.144Z,100410.34
2023-02-19T23:43:30.277Z,100405.16
2023-02-19T23:45:57.805Z,100415.94
2023-02-19T23:48:24.745Z,100409.78
2023-02-19T23:50:51.574Z,100410.84
2023-02-19T23:53:18.563Z,100397.72
2023-02-19T23:55:46.071Z,100365.06
2023-02-19T23:58:13.007Z,100378.38
